createdAt,value
2022-10-16T00:03:26.720Z,66673.50
2022-10-16T00:08:33.990Z,66674.88
2022-10-16T00:13:41.307Z,66596.81
2022-10-16T00:18:45.310Z,66648.34
2022-10-16T00:23:53.337Z,66631.59
2022-10-16T00:28:58.837Z,66704.25
2022-10-16T00:34:03.008Z,66686.56
2022-10-16T00:39:07.198Z,66618.88
2022-10-16T00:44:48.891Z,66636.00
2022-10-16T00:49:55.588Z,66640.91
2022-10-16T00:55:00.727Z,66605.88
2022-10-16T01:00:09.835Z,66672.13
2022-10-16T01:05:13.832Z,66697.25
2022-10-16T01:10:29.169Z,66683.31
2022-10-16T01:20:49.874Z,66584.22
2022-10-16T01:26:17.917Z,66610.81
2022-10-16T01:31:29.480Z,66667.19
2022-10-16T01:36:39.784Z,66656.56
2022-10-16T01:41:50.240Z,66654.28
2022-10-16T01:46:59.277Z,66611.94
2022-10-16T01:52:08.234Z,66603.81
2022-10-16T01:57:15.297Z,66649.97
2022-10-16T02:02:24.108Z,66606.50
2022-10-16T02:07:28.773Z,66666.72
2022-10-16T02:12:36.154Z,66683.31
2022-10-16T02:17:43.059Z,66715.53
2022-10-16T02:22:51.303Z,66659.13
2022-10-16T02:27:59.852Z,66696.16
2022-10-16T02:33:09.049Z,66662.25
2022-10-16T02:38:14.828Z,66580.09
2022-10-16T02:43:19.368Z,66585.00
2022-10-16T02:48:25.144Z,66644.75
2022-10-16T02:53:28.979Z,66699.09
2022-10-16T02:58:32.708Z,66711.91
2022-10-16T03:03:38.995Z,66703.88
2022-10-16T03:08:42.779Z,66731.16
2022-10-16T03:13:46.542Z,66777.66
2022-10-16T03:18:51.798Z,66700.19
2022-10-16T03:23:55.489Z,66756.13
2022-10-16T03:28:59.440Z,66807.81
2022-10-16T03:34:04.558Z,66745.28
2022-10-16T03:39:08.433Z,66731.22
2022-10-16T03:44:12.206Z,66699.56
2022-10-16T03:49:20.254Z,66798.34
2022-10-16T03:54:24.219Z,66751.75
2022-10-16T03:59:27.980Z,66822.88
2022-10-16T04:04:33.185Z,66817.44
2022-10-16T04:09:37.809Z,66744.66
2022-10-16T04:14:41.573Z,66717.78
2022-10-16T04:19:46.609Z,66704.41
2022-10-16T04:24:50.256Z,66677.00
2022-10-16T04:29:53.985Z,66747.44
2022-10-16T04:34:59.174Z,66815.75
2022-10-16T04:40:03.387Z,66809.41
2022-10-16T04:45:10.948Z,66648.34
2022-10-16T04:50:18.570Z,66684.47
2022-10-16T04:55:39.240Z,66690.84
2022-10-16T05:00:42.900Z,66744.22
2022-10-16T05:05:48.462Z,66757.22
2022-10-16T05:10:52.175Z,66750.53
2022-10-16T05:15:55.914Z,66808.28
2022-10-16T05:21:01.242Z,66798.03
2022-10-16T05:26:05.020Z,66877.06
2022-10-16T05:31:09.110Z,66806.66
2022-10-16T05:36:14.117Z,66862.13
2022-10-16T05:41:22.409Z,66808.28
2022-10-16T05:46:26.571Z,66838.44
2022-10-16T05:51:31.709Z,66842.81
2022-10-16T05:56:35.684Z,66876.81
2022-10-16T06:01:39.363Z,66896.06
2022-10-16T06:06:44.595Z,66807.09
2022-10-16T06:11:48.222Z,66858.97
2022-10-16T06:16:51.795Z,66823.75
2022-10-16T06:21:59.134Z,66903.59
2022-10-16T06:27:03.052Z,66919.16
2022-10-16T06:32:06.886Z,66933.81
2022-10-16T06:37:12.342Z,66966.13
2022-10-16T06:42:16.607Z,66951.03
2022-10-16T06:47:20.398Z,67010.25
2022-10-16T06:52:25.895Z,67049.72
2022-10-16T06:57:29.798Z,66961.34
2022-10-16T07:02:34.922Z,67066.44
2022-10-16T07:07:40.259Z,66987.00
2022-10-16T07:12:46.207Z,67038.94
2022-10-16T07:17:50.145Z,66993.06
2022-10-16T07:22:55.424Z,67072.84
2022-10-16T07:28:02.165Z,67029.13
2022-10-16T07:33:09.272Z,67151.69
2022-10-16T07:38:14.657Z,67096.09
2022-10-16T07:43:18.550Z,67086.47
2022-10-16T07:48:22.863Z,67002.78
2022-10-16T07:53:29.728Z,67049.19
2022-10-16T07:58:34.110Z,67054.56
2022-10-16T08:03:38.660Z,67171.72
2022-10-16T08:08:45.348Z,67091.78
2022-10-16T08:13:58.224Z,67170.03
2022-10-16T08:19:02.532Z,67210.59
2022-10-16T08:24:08.228Z,67280.66
2022-10-16T08:29:12.283Z,67243.00
2022-10-16T08:34:21.701Z,67295.19
2022-10-16T08:39:26.895Z,67326.78
2022-10-16T08:44:41.783Z,67322.25
2022-10-16T08:49:55.533Z,67363.94
2022-10-16T08:55:00.739Z,67281.81
2022-10-16T09:00:14.100Z,67326.66
2022-10-16T09:05:26.393Z,67386.09
2022-10-16T09:10:37.161Z,67429.50
2022-10-16T09:15:45.677Z,67342.94
2022-10-16T09:20:57.436Z,67260.75
2022-10-16T09:26:14.536Z,67227.25
2022-10-16T09:31:26.858Z,67217.53
2022-10-16T09:36:31.302Z,67166.69
2022-10-16T09:41:39.298Z,67205.53
2022-10-16T09:46:43.343Z,67322.31
2022-10-16T09:51:47.131Z,67268.91
2022-10-16T09:56:53.147Z,67175.44
2022-10-16T10:01:57.704Z,67257.03
2022-10-16T10:07:01.901Z,67331.00
2022-10-16T10:12:21.786Z,67321.72
2022-10-16T10:17:29.293Z,67277.50
2022-10-16T10:22:34.668Z,67252.09
2022-10-16T10:27:44.706Z,67342.94
2022-10-16T10:32:54.826Z,67295.31
2022-10-16T10:38:07.902Z,67267.25
2022-10-16T10:43:25.402Z,67380.63
2022-10-16T10:48:47.178Z,67407.31
2022-10-16T10:54:10.431Z,67445.06
2022-10-16T10:59:36.443Z,67479.59
2022-10-16T11:05:01.784Z,67539.22
2022-10-16T11:10:11.172Z,67505.16
2022-10-16T11:15:23.670Z,67396.91
2022-10-16T11:20:45.925Z,67406.69
2022-10-16T11:26:19.995Z,67448.78
2022-10-16T11:31:38.883Z,67555.47
2022-10-16T11:37:00.815Z,67346.66
2022-10-16T11:42:18.188Z,67602.00
2022-10-16T11:47:58.094Z,67634.38
2022-10-16T11:53:41.219Z,67784.47
2022-10-16T11:59:21.969Z,67733.53
2022-10-16T12:10:35.006Z,67622.56
2022-10-16T12:16:04.490Z,67699.47
2022-10-16T12:21:40.362Z,67832.28
2022-10-16T12:27:35.364Z,67707.38
2022-10-16T12:33:31.914Z,67854.94
2022-10-16T12:39:40.519Z,67767.16
2022-10-16T12:44:57.226Z,67858.69
2022-10-16T12:50:07.256Z,67917.38
2022-10-16T12:55:19.317Z,67767.25
2022-10-16T13:00:28.491Z,67831.63
2022-10-16T13:05:42.991Z,67857.59
2022-10-16T13:10:53.764Z,67869.03
2022-10-16T13:16:07.244Z,67871.22
2022-10-16T13:21:21.974Z,67856.56
2022-10-16T13:26:32.251Z,67788.28
2022-10-16T13:31:36.257Z,67812.72
2022-10-16T13:36:47.278Z,67856.53
2022-10-16T13:42:04.888Z,67821.84
2022-10-16T13:47:18.045Z,67815.31
2022-10-16T13:52:23.486Z,67779.06
2022-10-16T13:57:27.926Z,67768.81
2022-10-16T14:02:35.831Z,67722.28
2022-10-16T14:07:42.900Z,67735.09
2022-10-16T14:12:47.052Z,67676.00
2022-10-16T14:17:53.853Z,67682.16
2022-10-16T14:23:02.797Z,67711.81
2022-10-16T14:28:07.482Z,67725.97
2022-10-16T14:33:22.678Z,67709.81
2022-10-16T14:38:28.139Z,67583.69
2022-10-16T14:43:34.885Z,67436.34
2022-10-16T14:48:42.501Z,67438.56
2022-10-16T14:53:47.797Z,67514.75
2022-10-16T14:58:52.881Z,67578.06
2022-10-16T15:03:56.791Z,67532.13
2022-10-16T15:09:02.249Z,67472.06
2022-10-16T15:14:06.388Z,67373.13
2022-10-16T15:19:10.289Z,67318.47
2022-10-16T15:24:18.038Z,67314.16
2022-10-16T15:29:25.228Z,67260.94
2022-10-16T15:34:29.117Z,67241.31
2022-10-16T15:39:39.027Z,67205.13
2022-10-16T15:44:45.011Z,67205.66
2022-10-16T15:49:51.580Z,67177.00
2022-10-16T15:54:56.837Z,67116.13
2022-10-16T16:00:02.021Z,67091.38
2022-10-16T16:05:16.081Z,67152.22
2022-10-16T16:10:24.488Z,67157.56
2022-10-16T16:15:28.284Z,67171.13
2022-10-16T16:20:32.017Z,67147.38
2022-10-16T16:25:37.325Z,67177.00
2022-10-16T16:30:41.142Z,67166.19
2022-10-16T16:35:45.530Z,67127.47
2022-10-16T16:40:54.093Z,67145.75
2022-10-16T16:46:03.664Z,67107.41
2022-10-16T16:51:07.727Z,67121.94
2022-10-16T16:56:13.138Z,67139.28
2022-10-16T17:01:20.575Z,67109.06
2022-10-16T17:06:26.629Z,67097.78
2022-10-16T17:11:31.963Z,67035.06
2022-10-16T17:16:37.006Z,66910.47
2022-10-16T17:21:40.831Z,66911.00
2022-10-16T17:26:49.313Z,66995.16
2022-10-16T17:31:53.346Z,66948.81
2022-10-16T17:36:57.093Z,66960.72
2022-10-16T17:42:15.668Z,66976.91
2022-10-16T17:47:20.889Z,66910.09
2022-10-16T17:52:24.720Z,66963.28
2022-10-16T17:57:28.899Z,66953.06
2022-10-16T18:02:36.038Z,66945.13
2022-10-16T18:12:49.962Z,66843.28
2022-10-16T18:17:55.213Z,66864.22
2022-10-16T18:22:59.255Z,66887.97
2022-10-16T18:28:06.830Z,66912.16
2022-10-16T18:33:11.850Z,66968.28
2022-10-16T18:38:15.982Z,66976.84
2022-10-16T18:43:21.066Z,67002.78
2022-10-16T18:48:26.182Z,66964.59
2022-10-16T18:53:30.135Z,66965.00
2022-10-16T18:58:35.963Z,66959.53
2022-10-16T19:03:42.034Z,66961.97
2022-10-16T19:08:45.842Z,66939.66
2022-10-16T19:13:50.101Z,66940.72
2022-10-16T19:18:57.824Z,66923.94
2022-10-16T19:24:02.697Z,66945.06
2022-10-16T19:29:07.334Z,66877.75
2022-10-16T19:34:12.861Z,66902.53
2022-10-16T19:39:17.899Z,66894.84
2022-10-16T19:44:21.696Z,66928.25
2022-10-16T19:49:26.917Z,66967.06
2022-10-16T19:54:30.584Z,66948.59
2022-10-16T19:59:34.660Z,66954.19
2022-10-16T20:04:39.820Z,66886.28
2022-10-16T20:09:43.566Z,66882.59
2022-10-16T20:14:47.908Z,66910.09
2022-10-16T20:19:53.240Z,66929.47
2022-10-16T20:24:57.152Z,66932.09
2022-10-16T20:30:01.259Z,66963.84
2022-10-16T20:35:08.004Z,66904.69
2022-10-16T20:40:12.735Z,66918.63
2022-10-16T20:45:16.681Z,66871.91
2022-10-16T20:50:21.772Z,66862.13
2022-10-16T20:55:25.476Z,66857.28
2022-10-16T21:00:30.679Z,66832.50
2022-10-16T21:05:40.799Z,66905.81
2022-10-16T21:10:44.580Z,66876.81
2022-10-16T21:15:50.068Z,66929.47
2022-10-16T21:20:55.348Z,66889.63
2022-10-16T21:25:59.434Z,66878.75
2022-10-16T21:31:11.799Z,66867.50
2022-10-16T21:36:17.957Z,66836.13
2022-10-16T21:41:22.897Z,66794.72
2022-10-16T21:46:28.116Z,66856.59
2022-10-16T21:51:37.726Z,66826.50
2022-10-16T21:56:41.377Z,66747.44
2022-10-16T22:01:45.233Z,66817.97
2022-10-16T22:06:50.429Z,66767.91
2022-10-16T22:11:54.172Z,66750.66
2022-10-16T22:16:57.869Z,66759.88
2022-10-16T22:22:03.113Z,66820.13
2022-10-16T22:27:06.811Z,66809.88
2022-10-16T22:32:10.427Z,66836.38
2022-10-16T22:37:15.454Z,66781.28
2022-10-16T22:42:19.223Z,66805.56
2022-10-16T22:47:22.882Z,66832.44
2022-10-16T22:52:27.952Z,66828.66
2022-10-16T22:57:32.134Z,66757.75
2022-10-16T23:02:35.773Z,66779.19
2022-10-16T23:07:41.539Z,66800.56
2022-10-16T23:12:46.452Z,66834.06
2022-10-16T23:17:50.039Z,66747.91
2022-10-16T23:22:55.313Z,66710.84
2022-10-16T23:27:58.941Z,66648.91
2022-10-16T23:33:02.591Z,66730.69
2022-10-16T23:38:08.017Z,66786.13
2022-10-16T23:43:11.635Z,66782.28
2022-10-16T23:48:15.308Z,66783.34
2022-10-16T23:53:20.872Z,66768.97
2022-10-16T23:58:24.509Z,66700.09
